Time;durP1;ratioP1;P1;durP2;ratioP2;P2;SDS_P1;SDS_P2;PMS_P1;PMS_P2;Temp;Humidity;BMP_temperature;BMP_pressure;BME280_temperature;BME280_humidity;BME280_pressure;Samples;Min_cycle;Max_cycle;Signal;HPM_P1;HPM_P2
2022/01/24 00:00:04;;;;;;;3.38;2.05;;;3.00;99.90;;;;;;5096004;28;20395;-61
2022/01/24 00:02:31;;;;;;;2.65;1.65;;;3.00;99.90;;;;;;5100775;28;20406;-62
2022/01/24 00:04:56;;;;;;;4.05;2.13;;;3.00;99.90;;;;;;5097974;28;20039;-59
2022/01/24 00:07:24;;;;;;;17.95;8.38;;;3.00;99.90;;;;;;5094542;28;20047;-62
2022/01/24 00:09:53;;;;;;;5.90;3.10;;;3.00;99.90;;;;;;5093949;28;20036;-62
2022/01/24 00:12:36;;;;;;;3.72;2.13;;;3.00;99.90;;;;;;5092224;28;20464;-62
2022/01/24 00:15:19;;;;;;;2.88;1.90;;;3.00;99.90;;;;;;5096158;28;20100;-61
2022/01/24 00:17:50;;;;;;;2.15;1.63;;;3.00;99.90;;;;;;5091425;28;20044;-56
2022/01/24 00:28:14;;;;;;;3.17;1.98;;;3.00;99.90;;;;;;5081694;28;20472;-61
2022/01/24 00:30:40;;;;;;;2.22;1.42;;;3.00;99.90;;;;;;5082479;28;20048;-60
2022/01/24 00:33:06;;;;;;;2.33;1.55;;;3.00;99.90;;;;;;5088986;28;20054;-61
2022/01/24 00:35:33;;;;;;;2.50;1.90;;;3.00;99.90;;;;;;5084404;28;20043;-62
2022/01/24 00:38:01;;;;;;;3.70;2.20;;;3.00;99.90;;;;;;5085386;28;20111;-62
2022/01/24 00:40:28;;;;;;;2.25;1.52;;;3.00;99.90;;;;;;5077041;28;20507;-62
2022/01/24 00:42:57;;;;;;;3.33;2.22;;;3.00;99.90;;;;;;5081214;28;20028;-61
2022/01/24 00:53:30;;;;;;;2.50;1.95;;;3.00;99.90;;;;;;5085094;28;20118;-62
2022/01/24 00:55:56;;;;;;;3.42;2.53;;;3.00;99.90;;;;;;5085571;28;20076;-63
2022/01/24 00:58:22;;;;;;;4.47;2.42;;;2.90;99.90;;;;;;5086378;28;20032;-62
2022/01/24 01:00:48;;;;;;;2.92;1.90;;;2.80;99.90;;;;;;5082308;28;20084;-62
2022/01/24 01:03:13;;;;;;;3.60;2.85;;;2.90;99.90;;;;;;5088520;28;20141;-61
2022/01/24 01:06:04;;;;;;;4.50;2.47;;;2.80;99.90;;;;;;5083919;28;20507;-62
2022/01/24 01:19:30;;;;;;;2.38;1.67;;;2.70;99.90;;;;;;5082163;28;20037;-61
2022/01/24 01:21:55;;;;;;;2.05;1.52;;;2.70;99.90;;;;;;5086718;28;20054;-60
2022/01/24 01:24:22;;;;;;;3.15;1.83;;;2.70;99.90;;;;;;5082335;28;20036;-61
2022/01/24 01:26:55;;;;;;;2.25;1.52;;;2.80;99.90;;;;;;5086170;28;20487;-62
2022/01/24 01:29:29;;;;;;;2.92;1.75;;;2.80;99.90;;;;;;5078377;28;20174;-61
2022/01/24 01:32:12;;;;;;;3.33;1.83;;;2.80;99.90;;;;;;5086725;28;20036;-61
2022/01/24 01:37:39;;;;;;;1.60;1.48;;;2.80;99.90;;;;;;5082953;28;20044;-60
2022/01/24 01:56:08;;;;;;;1.55;1.23;;;2.90;99.90;;;;;;5076071;28;20534;-60
2022/01/24 01:58:35;;;;;;;1.88;1.20;;;3.00;99.90;;;;;;5082681;28;20036;-58
2022/01/24 02:01:03;;;;;;;2.72;1.23;;;3.00;99.90;;;;;;5080450;28;20039;-61
2022/01/24 02:03:29;;;;;;;1.38;1.20;;;3.00;99.90;;;;;;5086574;28;20096;-62
2022/01/24 02:05:55;;;;;;;2.47;1.30;;;3.00;99.90;;;;;;5081981;28;20050;-62
2022/01/24 02:08:32;;;;;;;1.80;1.35;;;3.00;99.90;;;;;;5077820;28;20035;-59
2022/01/24 02:10:58;;;;;;;2.40;1.50;;;3.00;99.90;;;;;;5073187;28;20035;-61
2022/01/24 02:13:26;;;;;;;2.65;1.65;;;3.10;99.90;;;;;;5086727;28;20047;-62
2022/01/24 02:16:13;;;;;;;1.92;1.50;;;3.00;99.90;;;;;;5082092;28;20484;-62
2022/01/24 02:18:51;;;;;;;2.08;1.40;;;3.00;99.90;;;;;;5082107;28;20059;-62
2022/01/24 02:21:42;;;;;;;2.20;1.63;;;3.00;99.90;;;;;;5072440;28;20044;-61
2022/01/24 02:24:09;;;;;;;2.10;1.75;;;3.10;99.90;;;;;;5077436;28;20120;-62
2022/01/24 02:26:35;;;;;;;2.35;1.80;;;3.10;99.90;;;;;;5083746;28;20098;-61
2022/01/24 02:29:32;;;;;;;2.42;1.92;;;3.00;99.90;;;;;;5081056;28;20505;-60
2022/01/24 02:31:58;;;;;;;2.97;1.90;;;3.10;99.90;;;;;;5078665;28;20123;-61
2022/01/24 02:34:26;;;;;;;2.95;1.83;;;3.00;99.90;;;;;;5081431;28;20123;-62
2022/01/24 02:36:54;;;;;;;2.58;2.00;;;3.00;99.90;;;;;;5078835;28;20044;-62
2022/01/24 02:50:06;;;;;;;3.55;2.13;;;3.00;99.90;;;;;;5080529;28;20031;-60
2022/01/24 02:52:31;;;;;;;4.70;2.60;;;3.10;99.90;;;;;;5083923;28;20484;-67
2022/01/24 02:54:57;;;;;;;3.05;2.17;;;3.10;99.90;;;;;;5078128;28;20032;-63
2022/01/24 02:57:23;;;;;;;2.45;1.85;;;3.00;99.90;;;;;;5078793;28;20602;-62
2022/01/24 02:59:48;;;;;;;2.78;2.17;;;2.90;99.90;;;;;;5080396;28;20059;-61
2022/01/24 03:02:14;;;;;;;3.47;2.25;;;2.80;99.90;;;;;;5084606;28;20034;-61
2022/01/24 03:04:40;;;;;;;4.22;2.25;;;2.70;99.90;;;;;;5081250;28;20075;-61
2022/01/24 03:07:07;;;;;;;3.42;2.50;;;2.80;99.90;;;;;;5081021;28;20477;-62
2022/01/24 03:09:33;;;;;;;3.10;2.38;;;2.80;99.90;;;;;;5080871;28;20047;-61
2022/01/24 03:12:11;;;;;;;8.80;6.00;;;2.70;99.90;;;;;;5085091;28;20104;-59
2022/01/24 03:14:37;;;;;;;41.17;23.25;;;2.70;99.90;;;;;;5082043;28;20062;-62
2022/01/24 03:17:05;;;;;;;8.48;4.82;;;2.80;99.90;;;;;;5084763;28;20480;-60
2022/01/24 03:19:32;;;;;;;3.33;2.72;;;2.80;99.90;;;;;;5076888;28;20121;-61
2022/01/24 03:21:58;;;;;;;3.00;2.42;;;2.80;99.90;;;;;;5076783;28;20040;-60
2022/01/24 03:24:23;;;;;;;3.60;2.40;;;2.70;99.90;;;;;;5079902;28;20432;-60
2022/01/24 03:26:50;;;;;;;4.35;2.47;;;2.70;99.90;;;;;;5085349;28;20499;-61
2022/01/24 03:29:16;;;;;;;3.97;2.70;;;2.70;99.90;;;;;;5079086;28;20107;-60
2022/01/24 03:31:43;;;;;;;3.83;2.65;;;2.60;99.90;;;;;;5077526;28;20115;-60
2022/01/24 03:34:09;;;;;;;4.20;3.40;;;2.70;99.90;;;;;;5081861;28;20484;-61
2022/01/24 03:36:35;;;;;;;4.45;3.38;;;2.70;99.90;;;;;;5083685;28;20071;-60
2022/01/24 03:39:01;;;;;;;4.43;3.08;;;2.70;99.90;;;;;;5077986;28;20074;-61
2022/01/24 03:41:27;;;;;;;5.30;2.40;;;2.70;99.90;;;;;;5070577;28;20111;-62
2022/01/24 03:43:53;;;;;;;3.72;2.70;;;2.70;99.90;;;;;;5083434;28;20135;-62
2022/01/24 03:48:51;;;;;;;5.00;3.45;;;2.70;99.90;;;;;;5081675;28;20035;-62
2022/01/24 03:51:17;;;;;;;5.05;3.65;;;2.70;99.90;;;;;;5079970;28;20040;-61
2022/01/24 03:53:44;;;;;;;4.82;3.17;;;2.60;99.90;;;;;;5084374;28;20115;-62
2022/01/24 03:56:11;;;;;;;3.20;2.63;;;2.70;99.90;;;;;;5086960;28;20130;-62
2022/01/24 03:58:38;;;;;;;5.63;3.60;;;2.70;99.90;;;;;;5084518;28;20040;-59
2022/01/24 04:01:06;;;;;;;5.75;3.55;;;2.70;99.90;;;;;;5083285;28;20039;-62
2022/01/24 04:03:32;;;;;;;3.65;2.50;;;2.70;99.90;;;;;;5087678;28;20417;-61
2022/01/24 04:05:58;;;;;;;5.78;3.30;;;2.60;99.90;;;;;;5086261;28;20036;-62
2022/01/24 04:08:24;;;;;;;5.85;3.08;;;2.60;99.90;;;;;;5080439;28;20043;-62
2022/01/24 04:10:53;;;;;;;4.72;3.60;;;2.60;99.90;;;;;;5074617;28;20035;-60
2022/01/24 04:18:37;;;;;;;6.82;3.70;;;2.60;99.90;;;;;;5086925;28;20467;-62
2022/01/24 04:23:56;;;;;;;4.32;3.40;;;2.70;99.90;;;;;;5070684;28;20045;-60
2022/01/24 04:26:22;;;;;;;3.95;2.92;;;2.70;99.90;;;;;;5074159;28;20057;-61
2022/01/24 04:28:47;;;;;;;4.20;3.08;;;2.70;99.90;;;;;;5084028;28;20109;-62
2022/01/24 04:31:14;;;;;;;5.07;3.65;;;2.70;99.90;;;;;;5081916;28;20032;-56
2022/01/24 04:33:40;;;;;;;7.35;3.92;;;2.60;99.90;;;;;;5085908;28;20122;-62
2022/01/24 04:36:06;;;;;;;6.15;4.03;;;2.60;99.90;;;;;;5084154;28;20753;-59
2022/01/24 04:38:32;;;;;;;5.32;3.72;;;2.60;99.90;;;;;;5083686;28;20079;-62
2022/01/24 04:41:01;;;;;;;7.28;3.83;;;2.50;99.90;;;;;;5082055;28;20067;-58
2022/01/24 04:43:52;;;;;;;4.15;3.17;;;2.50;99.90;;;;;;5088406;28;20479;-62
2022/01/24 04:54:38;;;;;;;7.22;4.40;;;2.40;99.90;;;;;;5082615;28;20050;-61
2022/01/24 04:57:00;;;;;;;5.90;3.42;;;2.40;99.90;;;;;;5080522;28;20068;-62
2022/01/24 04:59:25;;;;;;;5.30;3.55;;;2.40;99.90;;;;;;5080310;28;20117;-62
2022/01/24 05:01:51;;;;;;;4.88;3.60;;;2.40;99.90;;;;;;5070605;28;20032;-63
2022/01/24 05:04:17;;;;;;;4.15;3.40;;;2.50;99.90;;;;;;5081541;28;20036;-62
2022/01/24 05:06:42;;;;;;;5.45;3.63;;;2.50;99.90;;;;;;5085882;28;20036;-65
2022/01/24 05:09:08;;;;;;;4.40;3.35;;;2.50;99.90;;;;;;5081334;28;20032;-62
2022/01/24 05:11:49;;;;;;;4.82;3.67;;;2.50;99.90;;;;;;5067758;28;20063;-59
2022/01/24 05:25:13;;;;;;;4.85;3.58;;;2.50;99.90;;;;;;5080248;28;20484;-61
2022/01/24 05:27:38;;;;;;;4.55;3.60;;;2.40;99.90;;;;;;5079747;28;20066;-60
2022/01/24 05:30:06;;;;;;;4.93;3.30;;;2.30;99.90;;;;;;5078425;28;20032;-61
2022/01/24 05:32:32;;;;;;;4.05;2.83;;;2.30;99.90;;;;;;5085790;28;20040;-60
2022/01/24 05:34:58;;;;;;;5.35;3.53;;;2.30;99.90;;;;;;5083637;28;20066;-61
2022/01/24 05:37:23;;;;;;;7.22;3.13;;;2.30;99.90;;;;;;5082440;28;20071;-59
2022/01/24 05:39:49;;;;;;;3.97;3.03;;;2.30;99.90;;;;;;5076939;28;20118;-61
2022/01/24 05:42:17;;;;;;;5.80;3.97;;;2.40;99.90;;;;;;5070736;28;20109;-61
2022/01/24 05:44:43;;;;;;;3.50;2.78;;;2.30;99.90;;;;;;5077346;28;20043;-63
2022/01/24 05:47:08;;;;;;;5.50;3.63;;;2.40;99.90;;;;;;5083426;28;20070;-61
2022/01/24 05:49:34;;;;;;;5.28;4.00;;;2.40;99.90;;;;;;5079183;28;20040;-62
2022/01/24 05:52:00;;;;;;;5.00;3.50;;;2.40;99.90;;;;;;5082405;28;20040;-61
2022/01/24 05:54:25;;;;;;;4.25;3.05;;;2.40;99.90;;;;;;5079395;28;20040;-61
2022/01/24 05:56:51;;;;;;;5.32;3.30;;;2.40;99.90;;;;;;5071834;28;20400;-60
2022/01/24 05:59:16;;;;;;;8.30;3.90;;;2.40;99.90;;;;;;5078236;28;20064;-62
2022/01/24 06:01:42;;;;;;;10.38;4.28;;;2.40;99.90;;;;;;5075973;28;20032;-61
2022/01/24 06:04:10;;;;;;;4.57;3.60;;;2.40;99.90;;;;;;5082005;28;20213;-62
2022/01/24 06:06:35;;;;;;;6.65;3.75;;;2.40;99.90;;;;;;5070729;28;20048;-62
2022/01/24 06:09:01;;;;;;;4.95;3.50;;;2.30;99.90;;;;;;5074541;28;20040;-59
2022/01/24 06:11:27;;;;;;;4.38;3.33;;;2.30;99.90;;;;;;5065168;28;20048;-59
2022/01/24 06:13:52;;;;;;;6.25;3.13;;;2.40;99.90;;;;;;5081255;28;20047;-60
2022/01/24 06:16:18;;;;;;;4.45;3.20;;;2.40;99.90;;;;;;5079982;28;20430;-59
2022/01/24 06:18:43;;;;;;;3.72;2.88;;;2.40;99.90;;;;;;5081111;28;20470;-62
2022/01/24 06:21:09;;;;;;;4.20;3.10;;;2.40;99.90;;;;;;5068626;28;20036;-62
2022/01/24 06:23:35;;;;;;;7.15;3.30;;;2.50;99.90;;;;;;5082894;28;20502;-61
2022/01/24 06:26:00;;;;;;;4.63;3.25;;;2.50;99.90;;;;;;5071232;28;20131;-60
2022/01/24 06:28:26;;;;;;;3.17;2.63;;;2.50;99.90;;;;;;5070640;28;20556;-61
2022/01/24 06:30:53;;;;;;;4.00;3.08;;;2.60;99.90;;;;;;5073207;28;20481;-60
2022/01/24 06:33:19;;;;;;;4.90;2.80;;;2.50;99.90;;;;;;5075188;28;20036;-61
2022/01/24 06:35:44;;;;;;;6.93;3.50;;;2.60;99.90;;;;;;5077566;28;20454;-61
2022/01/24 06:38:11;;;;;;;4.07;3.33;;;2.50;99.90;;;;;;5056568;28;20033;-61
2022/01/24 06:40:37;;;;;;;4.60;3.25;;;2.50;99.90;;;;;;5068123;28;20060;-60
2022/01/24 06:43:03;;;;;;;4.28;3.45;;;2.40;99.90;;;;;;5071892;28;20064;-61
2022/01/24 06:45:29;;;;;;;4.68;3.67;;;2.40;99.90;;;;;;5072700;28;20092;-61
2022/01/24 06:47:55;;;;;;;14.60;3.35;;;2.30;99.90;;;;;;5074848;28;20043;-62
2022/01/24 06:50:20;;;;;;;4.15;3.13;;;2.30;99.90;;;;;;5072194;28;20027;-61
2022/01/24 06:52:47;;;;;;;4.70;3.70;;;2.30;99.90;;;;;;5075177;28;20040;-60
2022/01/24 06:55:13;;;;;;;7.03;4.32;;;2.30;99.90;;;;;;5068300;28;20040;-62
2022/01/24 06:57:38;;;;;;;8.88;4.57;;;2.30;99.90;;;;;;5072319;28;20045;-58
2022/01/24 07:00:05;;;;;;;5.50;3.92;;;2.40;99.90;;;;;;5071812;28;20135;-61
2022/01/24 07:02:31;;;;;;;7.72;5.05;;;2.30;99.90;;;;;;5072344;28;20032;-60
2022/01/24 07:04:56;;;;;;;5.45;4.18;;;2.30;99.90;;;;;;5079090;28;20043;-60
2022/01/24 07:07:22;;;;;;;15.00;5.82;;;2.20;99.90;;;;;;5075615;28;20045;-59
2022/01/24 07:09:48;;;;;;;27.02;5.93;;;2.30;99.90;;;;;;5075779;28;20032;-59
2022/01/24 07:12:13;;;;;;;22.63;5.38;;;2.30;99.90;;;;;;5075487;28;20036;-58
2022/01/24 07:14:41;;;;;;;10.95;5.25;;;2.40;99.90;;;;;;5082197;28;20047;-59
2022/01/24 07:17:15;;;;;;;6.25;4.60;;;2.40;99.90;;;;;;5085921;28;20043;-61
2022/01/24 07:19:41;;;;;;;15.23;5.75;;;2.40;99.90;;;;;;5074948;28;20048;-62
2022/01/24 07:22:07;;;;;;;16.88;7.78;;;2.40;99.90;;;;;;5085282;28;20550;-59
2022/01/24 07:24:34;;;;;;;35.60;6.80;;;2.50;99.90;;;;;;5080219;28;20182;-60
2022/01/24 07:27:00;;;;;;;18.98;9.77;;;2.50;99.90;;;;;;5087072;28;20457;-59
2022/01/24 07:29:26;;;;;;;12.20;7.38;;;2.50;99.90;;;;;;5082663;28;20404;-63
2022/01/24 07:31:52;;;;;;;82.75;8.80;;;2.50;99.90;;;;;;5090181;28;20038;-63
2022/01/24 07:34:18;;;;;;;32.42;8.05;;;2.50;99.90;;;;;;5086810;28;20600;-62
2022/01/24 07:36:44;;;;;;;32.17;11.30;;;2.50;99.90;;;;;;5089504;28;20119;-62
2022/01/24 07:39:09;;;;;;;28.17;11.20;;;2.50;99.90;;;;;;5086112;28;20126;-63
2022/01/24 07:41:42;;;;;;;10.27;6.45;;;2.40;99.90;;;;;;5076913;28;20037;-61
2022/01/24 07:44:08;;;;;;;14.18;7.55;;;2.50;99.90;;;;;;5080879;28;20032;-62
2022/01/24 07:46:34;;;;;;;9.07;5.45;;;2.50;99.90;;;;;;5077374;28;20075;-58
2022/01/24 07:49:06;;;;;;;23.48;6.63;;;2.60;99.90;;;;;;5075506;28;20067;-61
2022/01/24 07:51:32;;;;;;;8.60;5.15;;;2.50;99.90;;;;;;5072497;28;20736;-62
2022/01/24 07:53:57;;;;;;;8.05;4.88;;;2.50;99.90;;;;;;5084277;28;20036;-62
2022/01/24 07:56:23;;;;;;;8.30;4.70;;;2.50;99.90;;;;;;5073979;28;20559;-61
2022/01/24 07:58:48;;;;;;;43.30;6.72;;;2.50;99.90;;;;;;5087152;28;20395;-61
2022/01/24 08:01:15;;;;;;;12.95;5.63;;;2.40;99.90;;;;;;5086368;28;20031;-60
2022/01/24 08:03:41;;;;;;;25.75;14.88;;;2.40;99.90;;;;;;5089128;28;20047;-63
2022/01/24 08:06:07;;;;;;;14.77;7.75;;;2.50;99.90;;;;;;5090068;28;20044;-62
2022/01/24 08:08:33;;;;;;;9.27;5.68;;;2.50;99.90;;;;;;5081732;28;20051;-62
2022/01/24 08:10:58;;;;;;;8.52;5.25;;;2.60;99.90;;;;;;5074657;28;20028;-62
2022/01/24 08:13:24;;;;;;;22.35;5.85;;;2.60;99.90;;;;;;5087063;28;20032;-62
2022/01/24 08:15:49;;;;;;;10.77;5.65;;;2.60;99.90;;;;;;5084741;28;20060;-61
2022/01/24 08:18:15;;;;;;;9.40;5.88;;;2.50;99.90;;;;;;5089822;28;20456;-59
2022/01/24 08:20:41;;;;;;;6.80;4.80;;;2.50;99.90;;;;;;5085121;28;20043;-62
2022/01/24 08:23:11;;;;;;;11.90;6.25;;;2.50;99.90;;;;;;5090162;28;20040;-62
2022/01/24 08:25:37;;;;;;;7.25;4.00;;;2.60;99.90;;;;;;5081204;28;20430;-61
2022/01/24 08:28:04;;;;;;;4.93;3.72;;;2.70;99.90;;;;;;5086391;28;20043;-60
2022/01/24 08:30:29;;;;;;;4.72;3.53;;;2.60;99.90;;;;;;5078356;28;20495;-62
2022/01/24 08:32:55;;;;;;;6.60;3.58;;;2.70;99.90;;;;;;5082674;28;20043;-62
2022/01/24 08:35:21;;;;;;;5.40;3.00;;;2.70;99.90;;;;;;5082768;28;20040;-61
2022/01/24 08:37:47;;;;;;;5.03;3.83;;;2.70;99.90;;;;;;5084939;28;20039;-60
2022/01/24 08:40:21;;;;;;;4.70;3.08;;;2.70;99.90;;;;;;5076583;28;20044;-57
2022/01/24 08:42:57;;;;;;;5.93;3.15;;;2.80;99.90;;;;;;5087074;28;20188;-60
2022/01/24 08:45:47;;;;;;;5.00;3.10;;;2.90;99.90;;;;;;5083900;28;20047;-58
2022/01/24 08:48:14;;;;;;;4.50;3.30;;;2.80;99.90;;;;;;5083710;28;20046;-60
2022/01/24 08:50:41;;;;;;;6.47;3.58;;;2.80;99.90;;;;;;5083068;28;20036;-59
2022/01/24 08:53:07;;;;;;;3.90;2.88;;;2.90;99.90;;;;;;5078751;28;20148;-58
2022/01/24 08:55:35;;;;;;;5.38;3.47;;;2.80;99.90;;;;;;5081999;28;20075;-60
2022/01/24 08:58:02;;;;;;;57.50;25.88;;;2.80;99.90;;;;;;5087037;28;20396;-59
2022/01/24 09:00:29;;;;;;;20.38;8.80;;;2.80;99.90;;;;;;5075372;28;20044;-61
2022/01/24 09:02:55;;;;;;;6.22;3.75;;;2.90;99.90;;;;;;5087732;28;20044;-60
2022/01/24 09:05:23;;;;;;;5.60;3.42;;;2.80;99.90;;;;;;5079604;28;20487;-61
2022/01/24 09:07:49;;;;;;;5.90;3.90;;;2.80;99.90;;;;;;5085932;28;20540;-60
2022/01/24 09:10:16;;;;;;;4.88;3.20;;;2.80;99.90;;;;;;5077401;28;20111;-61
2022/01/24 09:12:41;;;;;;;3.67;2.80;;;2.80;99.90;;;;;;5081827;28;20036;-61
2022/01/24 09:15:08;;;;;;;5.07;2.63;;;2.90;99.90;;;;;;5084735;28;20040;-62
2022/01/24 09:17:34;;;;;;;18.90;4.20;;;2.90;99.90;;;;;;5088153;28;20096;-60
2022/01/24 09:20:00;;;;;;;11.15;4.07;;;2.80;99.90;;;;;;5081281;28;20032;-62
2022/01/24 09:22:26;;;;;;;4.22;3.28;;;2.80;99.90;;;;;;5089778;28;20032;-61
2022/01/24 09:24:52;;;;;;;4.93;3.65;;;2.70;99.90;;;;;;5083913;28;20524;-61
2022/01/24 09:27:18;;;;;;;5.07;3.83;;;2.80;99.90;;;;;;5086801;28;20078;-61
2022/01/24 09:29:44;;;;;;;4.63;2.97;;;2.90;99.90;;;;;;5081864;28;20493;-61
2022/01/24 09:32:09;;;;;;;3.92;2.83;;;2.90;99.90;;;;;;5088641;28;20052;-61
2022/01/24 09:34:35;;;;;;;6.47;3.83;;;3.00;99.90;;;;;;5085655;28;20033;-58
2022/01/24 09:37:01;;;;;;;4.65;3.30;;;2.90;99.90;;;;;;5087231;28;20040;-60
2022/01/24 09:39:27;;;;;;;3.80;2.67;;;3.00;99.90;;;;;;5084519;28;20123;-59
2022/01/24 09:41:53;;;;;;;6.80;3.55;;;;;;;;;;5079037;28;20085;-61
2022/01/24 09:44:20;;;;;;;5.95;3.15;;;;;;;;;;5083984;28;20060;-61
2022/01/24 09:46:46;;;;;;;4.38;2.38;;;;;;;;;;5086431;28;20126;-61
2022/01/24 09:49:13;;;;;;;5.10;2.75;;;;;;;;;;5084930;28;20043;-60
2022/01/24 09:51:39;;;;;;;7.03;2.92;;;;;;;;;;5084199;28;20494;-60
2022/01/24 09:54:06;;;;;;;5.85;3.45;;;;;;;;;;5085755;28;20028;-61
2022/01/24 09:56:34;;;;;;;5.20;3.55;;;;;;;;;;5085908;28;20411;-62
2022/01/24 09:59:00;;;;;;;5.68;3.30;;;;;;;;;;5082335;28;20399;-61
2022/01/24 10:01:26;;;;;;;7.47;3.72;;;;;;;;;;5071759;28;20054;-61
2022/01/24 10:04:10;;;;;;;6.40;3.95;;;;;;;;;;5071786;28;20044;-59
2022/01/24 10:06:55;;;;;;;9.05;5.47;;;;;;;;;;5066131;28;20409;-60
2022/01/24 10:09:31;;;;;;;5.40;3.20;;;;;;;;;;5075473;28;20051;-60
2022/01/24 10:12:03;;;;;;;4.00;2.40;;;;;;;;;;5067721;28;20036;-62
2022/01/24 10:17:24;;;;;;;5.70;2.97;;;;;;;;;;5082543;28;20048;-58
2022/01/24 10:19:51;;;;;;;5.15;3.10;;;;;;;;;;5080513;28;20466;-61
2022/01/24 10:22:20;;;;;;;3.15;2.42;;;;;;;;;;5086476;28;20043;-61
2022/01/24 10:24:53;;;;;;;4.32;2.40;;;;;;;;;;5073460;28;20521;-60
2022/01/24 10:27:20;;;;;;;2.95;2.22;;;;;;;;;;5085485;28;20491;-61
2022/01/24 10:29:47;;;;;;;4.72;2.63;;;;;;;;;;5078074;28;20725;-59
2022/01/24 10:32:32;;;;;;;5.43;2.85;;;;;;;;;;5083031;28;20147;-61
2022/01/24 10:35:18;;;;;;;4.25;2.72;;;;;;;;;;5078903;28;20551;-60
2022/01/24 10:37:47;;;;;;;5.45;2.83;;;;;;;;;;5077636;28;20419;-57
2022/01/24 10:40:29;;;;;;;5.03;3.05;;;;;;;;;;5080701;28;20043;-61
2022/01/24 10:43:14;;;;;;;11.30;3.03;;;;;;;;;;5085810;28;20032;-60
2022/01/24 10:45:44;;;;;;;5.43;3.28;;;;;;;;;;5081253;28;20115;-62
2022/01/24 10:48:10;;;;;;;4.28;2.95;;;;;;;;;;5084931;28;20040;-62
2022/01/24 10:50:36;;;;;;;3.38;2.47;;;;;;;;;;5072951;28;20128;-62
2022/01/24 10:53:16;;;;;;;4.00;2.65;;;;;;;;;;5078399;28;20499;-59
2022/01/24 10:55:43;;;;;;;3.88;2.72;;;;;;;;;;5082408;28;20036;-61
2022/01/24 10:58:16;;;;;;;3.63;2.47;;;;;;;;;;5083859;28;20122;-61
2022/01/24 11:00:43;;;;;;;4.63;2.80;;;;;;;;;;5081189;28;20444;-61
2022/01/24 11:03:15;;;;;;;5.72;2.90;;;;;;;;;;5077942;28;20036;-59
2022/01/24 11:05:43;;;;;;;3.38;2.03;;;;;;;;;;5080458;28;20315;-60
2022/01/24 11:08:10;;;;;;;2.80;2.30;;;;;;;;;;5079025;28;20168;-63
2022/01/24 11:10:38;;;;;;;3.55;2.60;;;;;;;;;;5081148;28;20488;-61
2022/01/24 11:13:05;;;;;;;3.58;2.65;;;;;;;;;;5085815;28;20050;-60
2022/01/24 11:15:32;;;;;;;3.38;2.60;;;;;;;;;;5081521;28;20033;-62
2022/01/24 11:17:59;;;;;;;5.63;3.63;;;;;;;;;;5085389;28;21043;-60
2022/01/24 11:20:30;;;;;;;5.07;2.53;;;;;;;;;;5073439;28;20123;-62
2022/01/24 11:23:01;;;;;;;5.07;2.60;;;;;;;;;;5085822;28;20036;-61
2022/01/24 11:25:31;;;;;;;2.45;2.05;;;;;;;;;;5081003;28;20043;-62
2022/01/24 11:27:57;;;;;;;3.42;2.63;;;;;;;;;;5082349;28;20040;-61
2022/01/24 11:30:27;;;;;;;3.83;2.05;;;;;;;;;;5078719;28;20044;-60
2022/01/24 11:32:59;;;;;;;5.35;2.22;;;;;;;;;;5086085;28;20044;-62
2022/01/24 11:35:30;;;;;;;3.90;2.60;;;;;;;;;;5074486;28;20638;-63
2022/01/24 11:37:57;;;;;;;7.45;2.40;;;;;;;;;;5076162;28;20039;-60
2022/01/24 11:40:23;;;;;;;3.03;2.33;;;;;;;;;;5072452;28;20060;-62
2022/01/24 11:42:50;;;;;;;4.80;2.10;;;;;;;;;;5079094;28;20613;-62
2022/01/24 11:45:19;;;;;;;7.07;2.38;;;;;;;;;;5080516;28;20385;-62
2022/01/24 11:47:46;;;;;;;3.90;2.50;;;;;;;;;;5084593;28;20036;-63
2022/01/24 11:50:24;;;;;;;3.50;2.60;;;;;;;;;;5074331;28;20170;-61
2022/01/24 11:52:51;;;;;;;9.30;3.72;;;;;;;;;;5078201;28;20679;-60
2022/01/24 11:55:30;;;;;;;5.25;3.38;;;;;;;;;;5070401;28;20031;-63
2022/01/24 11:58:03;;;;;;;4.47;2.75;;;;;;;;;;5083714;28;20040;-59
2022/01/24 12:00:34;;;;;;;2.45;2.00;;;;;;;;;;5071629;28;20036;-61
2022/01/24 12:03:02;;;;;;;5.45;3.05;;;;;;;;;;5080137;28;20032;-62
2022/01/24 12:05:31;;;;;;;4.03;2.58;;;;;;;;;;5081217;28;20708;-63
2022/01/24 12:07:58;;;;;;;3.33;2.38;;;;;;;;;;5078267;28;20257;-62
2022/01/24 12:10:25;;;;;;;3.90;2.65;;;;;;;;;;5073490;28;20496;-62
2022/01/24 12:12:55;;;;;;;4.75;2.55;;;;;;;;;;5077835;28;20051;-60
2022/01/24 12:15:39;;;;;;;5.43;3.10;;;;;;;;;;5084908;28;20039;-61
2022/01/24 12:18:10;;;;;;;5.45;2.47;;;;;;;;;;5087950;28;20028;-61
2022/01/24 12:20:36;;;;;;;4.32;2.63;;;;;;;;;;5081449;28;20047;-62
2022/01/24 12:23:21;;;;;;;3.22;2.17;;;;;;;;;;5079546;28;20028;-60
2022/01/24 12:26:02;;;;;;;2.97;2.47;;;;;;;;;;5080387;28;20050;-63
2022/01/24 12:28:30;;;;;;;3.38;2.05;;;;;;;;;;5084822;28;20655;-62
2022/01/24 12:31:02;;;;;;;3.90;2.63;;;;;;;;;;5082597;28;20040;-63
2022/01/24 12:33:42;;;;;;;5.63;2.70;;;;;;;;;;5086507;28;20043;-62
2022/01/24 12:36:13;;;;;;;6.05;2.70;;;;;;;;;;5088503;28;20090;-64
2022/01/24 12:38:43;;;;;;;4.30;2.88;;;;;;;;;;5083462;28;20470;-62
2022/01/24 12:41:18;;;;;;;5.13;2.70;;;;;;;;;;5073917;28;20036;-63
2022/01/24 12:43:58;;;;;;;4.55;2.95;;;;;;;;;;5086664;28;20036;-63
2022/01/24 12:46:26;;;;;;;3.65;2.85;;;;;;;;;;5078784;28;20048;-64
2022/01/24 12:48:53;;;;;;;4.47;3.10;;;;;;;;;;5084501;28;20086;-62
2022/01/24 12:51:23;;;;;;;10.25;3.50;;;;;;;;;;5073336;28;20028;-63
2022/01/24 12:53:49;;;;;;;7.63;3.05;;;;;;;;;;5076348;28;20036;-63
2022/01/24 12:56:18;;;;;;;4.32;2.53;;;;;;;;;;5072518;28;20060;-64
2022/01/24 12:58:46;;;;;;;3.20;2.45;;;;;;;;;;5083142;28;20078;-64
2022/01/24 13:01:21;;;;;;;3.50;2.45;;;;;;;;;;5083119;28;20028;-63
2022/01/24 13:03:52;;;;;;;5.55;2.20;;;;;;;;;;5087032;28;20429;-62
2022/01/24 13:06:19;;;;;;;3.88;2.63;;;;;;;;;;5085360;28;20074;-63
2022/01/24 13:08:55;;;;;;;4.30;2.47;;;;;;;;;;5076894;28;20040;-64
2022/01/24 13:11:21;;;;;;;3.95;2.55;;;;;;;;;;5082279;28;20032;-64
2022/01/24 13:14:08;;;;;;;4.00;2.72;;;;;;;;;;5085847;28;20036;-62
2022/01/24 13:22:27;;;;;;;7.47;2.65;;;;;;;;;;5087705;28;20040;-59
2022/01/24 13:25:02;;;;;;;4.15;1.95;;;;;;;;;;5075406;28;20054;-64
2022/01/24 13:27:39;;;;;;;4.35;2.63;;;;;;;;;;5087427;28;20044;-62
2022/01/24 13:30:06;;;;;;;3.15;2.22;;;;;;;;;;5080810;28;20032;-60
2022/01/24 13:32:47;;;;;;;3.72;2.67;;;;;;;;;;5082100;28;20126;-62
2022/01/24 13:35:14;;;;;;;4.75;3.00;;;;;;;;;;5080194;28;20035;-63
2022/01/24 13:37:40;;;;;;;11.32;4.10;;;;;;;;;;5077818;28;20040;-62
2022/01/24 13:40:07;;;;;;;7.20;4.28;;;;;;;;;;5072557;28;20085;-61
2022/01/24 13:42:37;;;;;;;7.15;3.70;;;;;;;;;;5074228;28;20139;-61
2022/01/24 13:45:03;;;;;;;7.18;3.28;;;;;;;;;;5076766;28;20040;-63
2022/01/24 13:47:29;;;;;;;7.05;3.08;;;;;;;;;;5078051;28;20085;-60
2022/01/24 13:49:56;;;;;;;9.77;5.53;;;;;;;;;;5079892;28;20061;-61
2022/01/24 13:52:24;;;;;;;7.68;4.00;;;;;;;;;;5088634;28;20031;-62
2022/01/24 13:54:50;;;;;;;4.88;3.05;;;;;;;;;;5083199;28;20038;-61
2022/01/24 13:57:18;;;;;;;4.78;2.67;;;;;;;;;;5086766;28;20466;-62
2022/01/24 13:59:44;;;;;;;2.97;2.08;;;;;;;;;;5081286;28;20459;-60
2022/01/24 14:02:12;;;;;;;5.82;2.40;;;;;;;;;;5086262;28;20101;-60
2022/01/24 14:04:41;;;;;;;4.97;2.15;;;;;;;;;;5082714;28;20419;-59
2022/01/24 14:07:07;;;;;;;54.28;28.58;;;;;;;;;;5083222;28;20488;-59
2022/01/24 14:09:41;;;;;;;8.48;5.50;;;;;;;;;;5079220;28;20043;-62
2022/01/24 14:12:08;;;;;;;6.45;3.72;;;;;;;;;;5076229;28;20032;-60
2022/01/24 14:14:59;;;;;;;17.80;9.00;;;;;;;;;;5082603;28;20482;-62
2022/01/24 14:20:14;;;;;;;8.00;4.18;;;;;;;;;;5081376;28;20442;-62
2022/01/24 14:22:51;;;;;;;5.70;3.47;;;;;;;;;;5079215;28;20116;-62
2022/01/24 14:25:17;;;;;;;22.67;11.70;;;;;;;;;;5079277;28;20050;-61
2022/01/24 14:27:48;;;;;;;58.33;29.27;;;;;;;;;;5073376;28;20072;-62
2022/01/24 14:30:14;;;;;;;44.95;23.90;;;;;;;;;;5071871;28;20037;-59
2022/01/24 14:32:59;;;;;;;8.68;4.93;;;;;;;;;;5079446;28;20032;-62
2022/01/24 14:35:25;;;;;;;4.72;3.05;;;;;;;;;;5076358;28;20067;-62
2022/01/24 14:37:53;;;;;;;4.00;2.90;;;;;;;;;;5077279;28;20451;-61
2022/01/24 14:40:37;;;;;;;3.40;2.17;;;;;;;;;;5072197;28;20073;-62
2022/01/24 14:44:53;;;;;;;6.50;3.08;;;;;;;;;;5081162;28;20431;-61
2022/01/24 14:45:49;;;;;;;3.33;2.40;;;;;;;;;;5071348;28;20040;-61
2022/01/24 14:48:15;;;;;;;3.97;2.90;;;;;;;;;;5080382;28;20039;-60
2022/01/24 14:50:41;;;;;;;3.67;2.78;;;;;;;;;;5071728;28;20069;-61
2022/01/24 14:53:08;;;;;;;4.10;2.53;;;;;;;;;;5077231;28;20081;-62
2022/01/24 14:55:35;;;;;;;4.18;2.72;;;;;;;;;;5073268;28;20990;-62
2022/01/24 14:58:01;;;;;;;3.80;2.42;;;;;;;;;;5082635;28;20043;-62
2022/01/24 15:00:27;;;;;;;4.47;3.00;;;;;;;;;;5078807;28;20727;-62
2022/01/24 15:02:56;;;;;;;6.82;2.90;;;;;;;;;;5081284;28;20035;-62
2022/01/24 15:05:23;;;;;;;4.07;2.85;;;;;;;;;;5073167;28;20063;-62
2022/01/24 15:07:49;;;;;;;5.18;3.10;;;;;;;;;;5071487;28;20400;-62
2022/01/24 15:10:15;;;;;;;3.85;2.78;;;;;;;;;;5072858;28;20064;-62
2022/01/24 15:12:47;;;;;;;3.92;2.63;;;;;;;;;;5077510;28;20071;-61
2022/01/24 15:15:17;;;;;;;5.65;2.53;;;;;;;;;;5079919;28;20078;-61
2022/01/24 15:26:06;;;;;;;4.85;2.00;;;;;;;;;;5083781;28;20503;-55
2022/01/24 15:28:32;;;;;;;2.25;1.65;;;;;;;;;;5082660;28;20036;-61